sensor_id;sensor_type;location;lat;lon;timestamp;temperature;humidity
16515;DHT22;8370;52.556;7.970;2023-12-07T00:00:10;3.30;99.90
16515;DHT22;8370;52.556;7.970;2023-12-07T00:02:35;3.20;99.90
16515;DHT22;8370;52.556;7.970;2023-12-07T00:05:01;3.20;99.90
16515;DHT22;8370;52.556;7.970;2023-12-07T00:07:26;3.20;99.90
16515;DHT22;8370;52.556;7.970;2023-12-07T00:09:51;3.30;99.90
16515;DHT22;8370;52.556;7.970;2023-12-07T00:12:17;3.30;99.90
16515;DHT22;8370;52.556;7.970;2023-12-07T00:14:42;3.20;99.90
16515;DHT22;8370;52.556;7.970;2023-12-07T00:17:08;3.20;99.90
16515;DHT22;8370;52.556;7.970;2023-12-07T00:19:33;3.30;99.90
16515;DHT22;8370;52.556;7.970;2023-12-07T00:21:59;3.20;99.90
16515;DHT22;8370;52.556;7.970;2023-12-07T00:24:24;3.20;99.90
16515;DHT22;8370;52.556;7.970;2023-12-07T00:26:50;3.30;99.90
16515;DHT22;8370;52.556;7.970;2023-12-07T00:29:15;3.30;99.90
16515;DHT22;8370;52.556;7.970;2023-12-07T00:31:40;3.20;99.90
16515;DHT22;8370;52.556;7.970;2023-12-07T00:34:06;3.30;99.90
16515;DHT22;8370;52.556;7.970;2023-12-07T00:36:32;3.30;99.90
16515;DHT22;8370;52.556;7.970;2023-12-07T00:38:57;3.30;99.90
16515;DHT22;8370;52.556;7.970;2023-12-07T00:41:23;3.40;99.90
16515;DHT22;8370;52.556;7.970;2023-12-07T00:43:48;3.40;99.90
16515;DHT22;8370;52.556;7.970;2023-12-07T00:46:13;3.40;99.90
16515;DHT22;8370;52.556;7.970;2023-12-07T00:48:39;3.30;99.90
16515;DHT22;8370;52.556;7.970;2023-12-07T00:51:05;3.30;99.90
16515;DHT22;8370;52.556;7.970;2023-12-07T00:53:31;3.30;99.90
16515;DHT22;8370;52.556;7.970;2023-12-07T00:55:57;3.40;99.90
16515;DHT22;8370;52.556;7.970;2023-12-07T00:58:22;3.40;99.90
16515;DHT22;8370;52.556;7.970;2023-12-07T01:00:48;3.40;99.90
16515;DHT22;8370;52.556;7.970;2023-12-07T01:03:13;3.40;99.90
16515;DHT22;8370;52.556;7.970;2023-12-07T01:05:39;3.50;99.90
16515;DHT22;8370;52.556;7.970;2023-12-07T01:08:04;3.40;99.90
16515;DHT22;8370;52.556;7.970;2023-12-07T01:10:30;3.30;99.90
16515;DHT22;8370;52.556;7.970;2023-12-07T01:12:56;3.30;99.90
16515;DHT22;8370;52.556;7.970;2023-12-07T01:15:21;3.30;99.90
16515;DHT22;8370;52.556;7.970;2023-12-07T01:17:47;3.30;99.90
16515;DHT22;8370;52.556;7.970;2023-12-07T01:20:12;3.30;99.90
16515;DHT22;8370;52.556;7.970;2023-12-07T01:22:39;3.30;99.90
16515;DHT22;8370;52.556;7.970;2023-12-07T01:25:05;3.40;99.90
16515;DHT22;8370;52.556;7.970;2023-12-07T01:27:31;3.30;99.90
16515;DHT22;8370;52.556;7.970;2023-12-07T01:29:56;3.40;99.90
16515;DHT22;8370;52.556;7.970;2023-12-07T01:32:22;3.30;99.90
16515;DHT22;8370;52.556;7.970;2023-12-07T01:34:47;3.30;99.90
16515;DHT22;8370;52.556;7.970;2023-12-07T01:37:13;3.30;99.90
16515;DHT22;8370;52.556;7.970;2023-12-07T01:39:38;3.20;99.90
16515;DHT22;8370;52.556;7.970;2023-12-07T01:42:04;3.30;99.90
16515;DHT22;8370;52.556;7.970;2023-12-07T01:44:29;3.30;99.90
16515;DHT22;8370;52.556;7.970;2023-12-07T01:46:54;3.20;99.90
16515;DHT22;8370;52.556;7.970;2023-12-07T01:49:20;3.20;99.90
16515;DHT22;8370;52.556;7.970;2023-12-07T01:51:46;3.20;99.90
16515;DHT22;8370;52.556;7.970;2023-12-07T01:54:11;3.10;99.90
16515;DHT22;8370;52.556;7.970;2023-12-07T01:56:37;3.20;99.90
16515;DHT22;8370;52.556;7.970;2023-12-07T01:59:03;3.20;99.90
16515;DHT22;8370;52.556;7.970;2023-12-07T02:01:28;3.20;99.90
16515;DHT22;8370;52.556;7.970;2023-12-07T02:03:54;3.30;99.90
16515;DHT22;8370;52.556;7.970;2023-12-07T02:06:20;3.20;99.90
16515;DHT22;8370;52.556;7.970;2023-12-07T02:08:45;3.30;99.90
16515;DHT22;8370;52.556;7.970;2023-12-07T02:11:11;3.30;99.90
16515;DHT22;8370;52.556;7.970;2023-12-07T02:13:37;3.20;99.90
16515;DHT22;8370;52.556;7.970;2023-12-07T02:16:04;3.20;99.90
16515;DHT22;8370;52.556;7.970;2023-12-07T02:18:37;3.20;99.90
16515;DHT22;8370;52.556;7.970;2023-12-07T02:21:18;3.30;99.90
16515;DHT22;8370;52.556;7.970;2023-12-07T02:23:46;3.30;99.90
16515;DHT22;8370;52.556;7.970;2023-12-07T02:26:12;3.30;99.90
16515;DHT22;8370;52.556;7.970;2023-12-07T02:28:38;3.30;99.90
16515;DHT22;8370;52.556;7.970;2023-12-07T02:31:04;3.20;99.90
16515;DHT22;8370;52.556;7.970;2023-12-07T02:33:29;3.30;99.90
16515;DHT22;8370;52.556;7.970;2023-12-07T02:35:55;3.30;99.90
16515;DHT22;8370;52.556;7.970;2023-12-07T02:38:21;3.30;99.90
16515;DHT22;8370;52.556;7.970;2023-12-07T02:40:47;3.30;99.90
16515;DHT22;8370;52.556;7.970;2023-12-07T02:43:14;3.30;99.90
16515;DHT22;8370;52.556;7.970;2023-12-07T02:45:40;3.20;99.90
16515;DHT22;8370;52.556;7.970;2023-12-07T02:48:05;3.20;99.90
16515;DHT22;8370;52.556;7.970;2023-12-07T02:50:30;3.20;99.90
16515;DHT22;8370;52.556;7.970;2023-12-07T02:52:56;3.30;99.90
16515;DHT22;8370;52.556;7.970;2023-12-07T02:55:22;3.30;99.90
16515;DHT22;8370;52.556;7.970;2023-12-07T02:57:47;3.30;99.90
16515;DHT22;8370;52.556;7.970;2023-12-07T03:00:13;3.30;99.90
16515;DHT22;8370;52.556;7.970;2023-12-07T03:02:39;3.20;99.90
16515;DHT22;8370;52.556;7.970;2023-12-07T03:05:05;3.20;99.90
16515;DHT22;8370;52.556;7.970;2023-12-07T03:07:30;3.20;99.90
16515;DHT22;8370;52.556;7.970;2023-12-07T03:09:56;3.20;99.90
16515;DHT22;8370;52.556;7.970;2023-12-07T03:12:21;3.10;99.90
16515;DHT22;8370;52.556;7.970;2023-12-07T03:14:48;3.20;99.90
16515;DHT22;8370;52.556;7.970;2023-12-07T03:17:13;3.30;99.90
16515;DHT22;8370;52.556;7.970;2023-12-07T03:19:39;3.30;99.90
16515;DHT22;8370;52.556;7.970;2023-12-07T03:22:05;3.20;99.90
16515;DHT22;8370;52.556;7.970;2023-12-07T03:24:32;3.20;99.90
16515;DHT22;8370;52.556;7.970;2023-12-07T03:26:58;3.20;99.90
16515;DHT22;8370;52.556;7.970;2023-12-07T03:29:23;3.20;99.90
16515;DHT22;8370;52.556;7.970;2023-12-07T03:31:48;3.20;99.90
16515;DHT22;8370;52.556;7.970;2023-12-07T03:34:14;3.20;99.90
16515;DHT22;8370;52.556;7.970;2023-12-07T03:36:42;3.30;99.90
16515;DHT22;8370;52.556;7.970;2023-12-07T03:39:07;3.30;99.90
16515;DHT22;8370;52.556;7.970;2023-12-07T03:41:33;3.20;99.90
16515;DHT22;8370;52.556;7.970;2023-12-07T03:43:58;3.10;99.90
16515;DHT22;8370;52.556;7.970;2023-12-07T03:46:23;3.10;99.90
16515;DHT22;8370;52.556;7.970;2023-12-07T03:48:49;3.00;99.90
16515;DHT22;8370;52.556;7.970;2023-12-07T03:51:15;3.00;99.90
16515;DHT22;8370;52.556;7.970;2023-12-07T03:53:42;3.00;99.90
16515;DHT22;8370;52.556;7.970;2023-12-07T03:56:07;3.00;99.90
16515;DHT22;8370;52.556;7.970;2023-12-07T03:58:33;3.10;99.90
16515;DHT22;8370;52.556;7.970;2023-12-07T04:00:58;3.00;99.90
16515;DHT22;8370;52.556;7.970;2023-12-07T04:03:24;3.00;99.90
16515;DHT22;8370;52.556;7.970;2023-12-07T04:05:49;3.00;99.90
16515;DHT22;8370;52.556;7.970;2023-12-07T04:08:14;3.00;99.90
16515;DHT22;8370;52.556;7.970;2023-12-07T04:10:40;3.00;99.90
16515;DHT22;8370;52.556;7.970;2023-12-07T04:13:06;3.00;99.90
16515;DHT22;8370;52.556;7.970;2023-12-07T04:15:31;3.10;99.90
16515;DHT22;8370;52.556;7.970;2023-12-07T04:17:57;3.00;99.90
16515;DHT22;8370;52.556;7.970;2023-12-07T04:20:22;3.00;99.90
16515;DHT22;8370;52.556;7.970;2023-12-07T04:22:47;3.00;99.90
16515;DHT22;8370;52.556;7.970;2023-12-07T04:25:13;2.90;99.90
16515;DHT22;8370;52.556;7.970;2023-12-07T04:27:38;2.90;99.90
16515;DHT22;8370;52.556;7.970;2023-12-07T04:30:04;3.00;99.90
16515;DHT22;8370;52.556;7.970;2023-12-07T04:32:29;3.00;99.90
16515;DHT22;8370;52.556;7.970;2023-12-07T04:34:55;2.90;99.90
16515;DHT22;8370;52.556;7.970;2023-12-07T04:37:20;3.00;99.90
16515;DHT22;8370;52.556;7.970;2023-12-07T04:39:46;2.90;99.90
16515;DHT22;8370;52.556;7.970;2023-12-07T04:42:11;2.90;99.90
16515;DHT22;8370;52.556;7.970;2023-12-07T04:44:37;3.00;99.90
16515;DHT22;8370;52.556;7.970;2023-12-07T04:47:02;2.90;99.90
16515;DHT22;8370;52.556;7.970;2023-12-07T04:49:28;2.90;99.90
16515;DHT22;8370;52.556;7.970;2023-12-07T04:51:53;2.90;99.90
16515;DHT22;8370;52.556;7.970;2023-12-07T04:54:18;2.90;99.90
16515;DHT22;8370;52.556;7.970;2023-12-07T04:56:44;2.90;99.90
16515;DHT22;8370;52.556;7.970;2023-12-07T04:59:10;2.90;99.90
16515;DHT22;8370;52.556;7.970;2023-12-07T05:01:35;2.90;99.90
16515;DHT22;8370;52.556;7.970;2023-12-07T05:04:01;2.90;99.90
16515;DHT22;8370;52.556;7.970;2023-12-07T05:06:29;2.80;99.90
16515;DHT22;8370;52.556;7.970;2023-12-07T05:08:54;2.80;99.90
16515;DHT22;8370;52.556;7.970;2023-12-07T05:11:20;2.90;99.90
16515;DHT22;8370;52.556;7.970;2023-12-07T05:13:45;2.90;99.90
16515;DHT22;8370;52.556;7.970;2023-12-07T05:16:10;2.90;99.90
16515;DHT22;8370;52.556;7.970;2023-12-07T05:18:36;2.90;99.90
16515;DHT22;8370;52.556;7.970;2023-12-07T05:21:01;2.90;99.90
16515;DHT22;8370;52.556;7.970;2023-12-07T05:23:27;2.90;99.90
16515;DHT22;8370;52.556;7.970;2023-12-07T05:25:52;2.80;99.90
16515;DHT22;8370;52.556;7.970;2023-12-07T05:28:19;2.90;99.90
16515;DHT22;8370;52.556;7.970;2023-12-07T05:30:44;2.80;99.90
16515;DHT22;8370;52.556;7.970;2023-12-07T05:33:10;2.80;99.90
16515;DHT22;8370;52.556;7.970;2023-12-07T05:35:36;2.80;99.90
16515;DHT22;8370;52.556;7.970;2023-12-07T05:38:02;2.80;99.90
16515;DHT22;8370;52.556;7.970;2023-12-07T05:40:27;2.80;99.90
16515;DHT22;8370;52.556;7.970;2023-12-07T05:42:53;2.70;99.90
16515;DHT22;8370;52.556;7.970;2023-12-07T05:45:18;2.70;99.90
16515;DHT22;8370;52.556;7.970;2023-12-07T05:47:44;2.70;99.90
16515;DHT22;8370;52.556;7.970;2023-12-07T05:50:09;2.70;99.90
16515;DHT22;8370;52.556;7.970;2023-12-07T05:52:35;2.70;99.90
16515;DHT22;8370;52.556;7.970;2023-12-07T05:55:00;2.70;99.90
16515;DHT22;8370;52.556;7.970;2023-12-07T05:57:26;2.70;99.90
16515;DHT22;8370;52.556;7.970;2023-12-07T05:59:51;2.70;99.90
16515;DHT22;8370;52.556;7.970;2023-12-07T06:02:17;2.80;99.90
16515;DHT22;8370;52.556;7.970;2023-12-07T06:04:42;2.70;99.90
16515;DHT22;8370;52.556;7.970;2023-12-07T06:07:08;2.70;99.90
16515;DHT22;8370;52.556;7.970;2023-12-07T06:09:33;2.60;99.90
16515;DHT22;8370;52.556;7.970;2023-12-07T06:11:59;2.60;99.90
16515;DHT22;8370;52.556;7.970;2023-12-07T06:14:24;2.60;99.90
16515;DHT22;8370;52.556;7.970;2023-12-07T06:16:50;2.60;99.90
16515;DHT22;8370;52.556;7.970;2023-12-07T06:19:15;2.60;99.90
16515;DHT22;8370;52.556;7.970;2023-12-07T06:21:41;2.60;99.90
16515;DHT22;8370;52.556;7.970;2023-12-07T06:24:06;2.60;99.90
16515;DHT22;8370;52.556;7.970;2023-12-07T06:26:32;2.70;99.90
16515;DHT22;8370;52.556;7.970;2023-12-07T06:28:58;2.70;99.90
16515;DHT22;8370;52.556;7.970;2023-12-07T06:31:23;2.60;99.90
16515;DHT22;8370;52.556;7.970;2023-12-07T06:33:49;2.60;99.90
16515;DHT22;8370;52.556;7.970;2023-12-07T06:36:17;2.60;99.90
16515;DHT22;8370;52.556;7.970;2023-12-07T06:38:43;2.70;99.90
16515;DHT22;8370;52.556;7.970;2023-12-07T06:41:08;2.60;99.90
16515;DHT22;8370;52.556;7.970;2023-12-07T06:43:34;2.70;99.90
16515;DHT22;8370;52.556;7.970;2023-12-07T06:45:59;2.60;99.90
16515;DHT22;8370;52.556;7.970;2023-12-07T06:48:25;2.60;99.90
16515;DHT22;8370;52.556;7.970;2023-12-07T06:50:50;2.60;99.90
16515;DHT22;8370;52.556;7.970;2023-12-07T06:53:16;2.60;99.90
16515;DHT22;8370;52.556;7.970;2023-12-07T06:55:43;2.60;99.90
16515;DHT22;8370;52.556;7.970;2023-12-07T06:58:09;2.60;99.90
16515;DHT22;8370;52.556;7.970;2023-12-07T07:00:35;2.60;99.90
16515;DHT22;8370;52.556;7.970;2023-12-07T07:03:01;2.50;99.90
16515;DHT22;8370;52.556;7.970;2023-12-07T07:05:26;2.50;99.90
16515;DHT22;8370;52.556;7.970;2023-12-07T07:07:52;2.50;99.90
16515;DHT22;8370;52.556;7.970;2023-12-07T07:10:17;2.50;99.90
16515;DHT22;8370;52.556;7.970;2023-12-07T07:12:43;2.50;99.90
16515;DHT22;8370;52.556;7.970;2023-12-07T07:15:08;2.50;99.90
16515;DHT22;8370;52.556;7.970;2023-12-07T07:17:34;2.50;99.90
16515;DHT22;8370;52.556;7.970;2023-12-07T07:19:59;2.60;99.90
16515;DHT22;8370;52.556;7.970;2023-12-07T07:22:25;2.60;99.90
16515;DHT22;8370;52.556;7.970;2023-12-07T07:24:50;2.50;99.90
16515;DHT22;8370;52.556;7.970;2023-12-07T07:27:16;2.50;99.90
16515;DHT22;8370;52.556;7.970;2023-12-07T07:29:41;2.60;99.90
16515;DHT22;8370;52.556;7.970;2023-12-07T07:32:06;2.60;99.90
16515;DHT22;8370;52.556;7.970;2023-12-07T07:34:32;2.60;99.90
16515;DHT22;8370;52.556;7.970;2023-12-07T07:36:58;2.60;99.90
16515;DHT22;8370;52.556;7.970;2023-12-07T07:39:23;2.50;99.90
16515;DHT22;8370;52.556;7.970;2023-12-07T07:41:49;2.50;99.90
16515;DHT22;8370;52.556;7.970;2023-12-07T07:44:14;2.50;99.90
16515;DHT22;8370;52.556;7.970;2023-12-07T07:46:42;2.60;99.90
16515;DHT22;8370;52.556;7.970;2023-12-07T07:49:08;2.60;99.90
16515;DHT22;8370;52.556;7.970;2023-12-07T07:51:33;2.60;99.90
16515;DHT22;8370;52.556;7.970;2023-12-07T07:53:59;2.60;99.90
16515;DHT22;8370;52.556;7.970;2023-12-07T07:56:25;2.60;99.90
16515;DHT22;8370;52.556;7.970;2023-12-07T07:58:50;2.60;99.90
16515;DHT22;8370;52.556;7.970;2023-12-07T08:01:16;2.60;99.90
16515;DHT22;8370;52.556;7.970;2023-12-07T08:03:41;2.60;99.90
16515;DHT22;8370;52.556;7.970;2023-12-07T08:06:07;2.60;99.90
16515;DHT22;8370;52.556;7.970;2023-12-07T08:08:32;2.60;99.90
16515;DHT22;8370;52.556;7.970;2023-12-07T08:10:57;2.60;99.90
16515;DHT22;8370;52.556;7.970;2023-12-07T08:13:23;2.60;99.90
16515;DHT22;8370;52.556;7.970;2023-12-07T08:15:48;2.70;99.90
16515;DHT22;8370;52.556;7.970;2023-12-07T08:18:14;2.70;99.90
16515;DHT22;8370;52.556;7.970;2023-12-07T08:20:39;2.80;99.90
16515;DHT22;8370;52.556;7.970;2023-12-07T08:23:05;2.70;99.90
16515;DHT22;8370;52.556;7.970;2023-12-07T08:25:30;2.70;99.90
16515;DHT22;8370;52.556;7.970;2023-12-07T08:27:57;2.80;99.90
16515;DHT22;8370;52.556;7.970;2023-12-07T08:30:22;2.80;99.90
16515;DHT22;8370;52.556;7.970;2023-12-07T08:32:48;2.70;99.90
16515;DHT22;8370;52.556;7.970;2023-12-07T08:35:13;2.80;99.90
16515;DHT22;8370;52.556;7.970;2023-12-07T08:37:39;2.80;99.90
16515;DHT22;8370;52.556;7.970;2023-12-07T08:40:05;2.80;99.90
16515;DHT22;8370;52.556;7.970;2023-12-07T08:42:30;2.80;99.90
16515;DHT22;8370;52.556;7.970;2023-12-07T08:44:57;2.80;99.90
16515;DHT22;8370;52.556;7.970;2023-12-07T08:47:22;2.80;99.90
16515;DHT22;8370;52.556;7.970;2023-12-07T08:49:48;2.90;99.90
16515;DHT22;8370;52.556;7.970;2023-12-07T08:52:13;2.90;99.90
16515;DHT22;8370;52.556;7.970;2023-12-07T08:54:38;2.90;99.90
16515;DHT22;8370;52.556;7.970;2023-12-07T08:57:04;2.90;99.90
16515;DHT22;8370;52.556;7.970;2023-12-07T08:59:29;3.00;99.90
16515;DHT22;8370;52.556;7.970;2023-12-07T09:01:55;3.00;99.90
16515;DHT22;8370;52.556;7.970;2023-12-07T09:04:21;3.00;99.90
16515;DHT22;8370;52.556;7.970;2023-12-07T09:06:46;3.00;99.90
16515;DHT22;8370;52.556;7.970;2023-12-07T09:09:12;3.00;99.90
16515;DHT22;8370;52.556;7.970;2023-12-07T09:11:37;3.10;99.90
16515;DHT22;8370;52.556;7.970;2023-12-07T09:14:03;3.10;99.90
16515;DHT22;8370;52.556;7.970;2023-12-07T09:16:28;3.10;99.90
16515;DHT22;8370;52.556;7.970;2023-12-07T09:18:53;3.10;99.90
16515;DHT22;8370;52.556;7.970;2023-12-07T09:21:19;3.10;99.90
16515;DHT22;8370;52.556;7.970;2023-12-07T09:23:45;3.10;99.90
16515;DHT22;8370;52.556;7.970;2023-12-07T09:26:10;3.20;99.90
16515;DHT22;8370;52.556;7.970;2023-12-07T09:28:36;3.20;99.90
16515;DHT22;8370;52.556;7.970;2023-12-07T09:31:01;3.20;99.90
16515;DHT22;8370;52.556;7.970;2023-12-07T09:33:27;3.20;99.90
16515;DHT22;8370;52.556;7.970;2023-12-07T09:35:53;3.30;99.90
16515;DHT22;8370;52.556;7.970;2023-12-07T09:38:18;3.30;99.90
16515;DHT22;8370;52.556;7.970;2023-12-07T09:40:44;3.30;99.90
16515;DHT22;8370;52.556;7.970;2023-12-07T09:43:10;3.30;99.90
16515;DHT22;8370;52.556;7.970;2023-12-07T09:45:37;3.30;99.90
16515;DHT22;8370;52.556;7.970;2023-12-07T09:48:02;3.30;99.90
16515;DHT22;8370;52.556;7.970;2023-12-07T09:50:29;3.20;99.90
16515;DHT22;8370;52.556;7.970;2023-12-07T09:52:56;3.20;99.90
16515;DHT22;8370;52.556;7.970;2023-12-07T09:55:22;3.20;99.90
16515;DHT22;8370;52.556;7.970;2023-12-07T09:57:48;3.20;99.90
16515;DHT22;8370;52.556;7.970;2023-12-07T10:00:13;3.20;99.90
16515;DHT22;8370;52.556;7.970;2023-12-07T10:02:44;3.20;99.90
16515;DHT22;8370;52.556;7.970;2023-12-07T10:05:10;3.10;99.90
16515;DHT22;8370;52.556;7.970;2023-12-07T10:07:36;3.20;99.90
16515;DHT22;8370;52.556;7.970;2023-12-07T10:10:03;3.10;99.90
16515;DHT22;8370;52.556;7.970;2023-12-07T10:12:29;3.10;99.90
16515;DHT22;8370;52.556;7.970;2023-12-07T10:14:54;3.10;99.90
16515;DHT22;8370;52.556;7.970;2023-12-07T10:17:20;3.20;99.90
16515;DHT22;8370;52.556;7.970;2023-12-07T10:19:45;3.10;99.90
16515;DHT22;8370;52.556;7.970;2023-12-07T10:22:14;3.10;99.90
16515;DHT22;8370;52.556;7.970;2023-12-07T10:24:40;3.10;99.90
16515;DHT22;8370;52.556;7.970;2023-12-07T10:27:06;3.10;99.90
16515;DHT22;8370;52.556;7.970;2023-12-07T10:29:35;3.00;99.90
16515;DHT22;8370;52.556;7.970;2023-12-07T10:32:02;3.00;99.90
16515;DHT22;8370;52.556;7.970;2023-12-07T10:34:28;3.00;99.90
16515;DHT22;8370;52.556;7.970;2023-12-07T10:36:53;2.90;99.90
16515;DHT22;8370;52.556;7.970;2023-12-07T10:39:21;2.90;99.90
16515;DHT22;8370;52.556;7.970;2023-12-07T10:41:49;2.80;99.90
16515;DHT22;8370;52.556;7.970;2023-12-07T10:44:17;2.80;99.90
16515;DHT22;8370;52.556;7.970;2023-12-07T10:46:43;2.70;99.90
16515;DHT22;8370;52.556;7.970;2023-12-07T10:49:10;2.60;99.90
16515;DHT22;8370;52.556;7.970;2023-12-07T10:51:37;2.60;99.90
16515;DHT22;8370;52.556;7.970;2023-12-07T10:54:04;2.60;99.90
16515;DHT22;8370;52.556;7.970;2023-12-07T10:56:35;2.50;99.90
16515;DHT22;8370;52.556;7.970;2023-12-07T10:59:05;2.50;99.90
16515;DHT22;8370;52.556;7.970;2023-12-07T11:01:31;2.50;99.90
16515;DHT22;8370;52.556;7.970;2023-12-07T11:03:57;2.50;99.90
16515;DHT22;8370;52.556;7.970;2023-12-07T11:06:23;2.50;99.90
16515;DHT22;8370;52.556;7.970;2023-12-07T11:08:54;2.50;99.90
16515;DHT22;8370;52.556;7.970;2023-12-07T11:11:29;2.40;99.90
16515;DHT22;8370;52.556;7.970;2023-12-07T11:14:01;2.40;99.90
16515;DHT22;8370;52.556;7.970;2023-12-07T11:16:28;2.40;99.90
16515;DHT22;8370;52.556;7.970;2023-12-07T11:18:53;2.40;99.90
16515;DHT22;8370;52.556;7.970;2023-12-07T11:21:19;2.50;99.90
16515;DHT22;8370;52.556;7.970;2023-12-07T11:23:44;2.50;99.90
16515;DHT22;8370;52.556;7.970;2023-12-07T11:26:10;2.60;99.90
16515;DHT22;8370;52.556;7.970;2023-12-07T11:28:36;2.60;99.90
16515;DHT22;8370;52.556;7.970;2023-12-07T11:31:03;2.70;99.90
16515;DHT22;8370;52.556;7.970;2023-12-07T11:33:29;2.70;99.90
16515;DHT22;8370;52.556;7.970;2023-12-07T11:38:29;2.70;99.90
16515;DHT22;8370;52.556;7.970;2023-12-07T11:40:55;2.70;99.90
16515;DHT22;8370;52.556;7.970;2023-12-07T11:43:36;2.60;99.90
16515;DHT22;8370;52.556;7.970;2023-12-07T11:46:02;2.60;99.90
16515;DHT22;8370;52.556;7.970;2023-12-07T11:48:27;2.60;99.90
16515;DHT22;8370;52.556;7.970;2023-12-07T11:51:00;2.60;99.90
16515;DHT22;8370;52.556;7.970;2023-12-07T11:53:29;2.50;99.90
16515;DHT22;8370;52.556;7.970;2023-12-07T11:55:56;2.60;99.90
16515;DHT22;8370;52.556;7.970;2023-12-07T11:58:23;2.60;99.90
16515;DHT22;8370;52.556;7.970;2023-12-07T12:00:50;2.60;99.90
16515;DHT22;8370;52.556;7.970;2023-12-07T12:03:16;2.60;99.90
16515;DHT22;8370;52.556;7.970;2023-12-07T12:05:42;2.60;99.90
16515;DHT22;8370;52.556;7.970;2023-12-07T12:08:08;2.60;99.90
16515;DHT22;8370;52.556;7.970;2023-12-07T12:10:34;2.60;99.90
16515;DHT22;8370;52.556;7.970;2023-12-07T12:13:02;2.70;99.90
16515;DHT22;8370;52.556;7.970;2023-12-07T12:15:28;2.70;99.90
16515;DHT22;8370;52.556;7.970;2023-12-07T12:17:57;2.80;99.90
16515;DHT22;8370;52.556;7.970;2023-12-07T12:20:25;2.80;99.90
16515;DHT22;8370;52.556;7.970;2023-12-07T12:22:51;2.70;99.90
16515;DHT22;8370;52.556;7.970;2023-12-07T12:25:23;2.80;99.90
16515;DHT22;8370;52.556;7.970;2023-12-07T12:27:51;2.80;99.90
16515;DHT22;8370;52.556;7.970;2023-12-07T12:30:17;2.70;99.90
16515;DHT22;8370;52.556;7.970;2023-12-07T12:32:43;2.70;99.90
16515;DHT22;8370;52.556;7.970;2023-12-07T12:35:09;2.70;99.90
16515;DHT22;8370;52.556;7.970;2023-12-07T12:37:34;2.70;99.90
16515;DHT22;8370;52.556;7.970;2023-12-07T12:40:05;2.70;99.90
16515;DHT22;8370;52.556;7.970;2023-12-07T12:42:30;2.80;99.90
16515;DHT22;8370;52.556;7.970;2023-12-07T12:44:56;2.80;99.90
16515;DHT22;8370;52.556;7.970;2023-12-07T12:47:22;2.80;99.90
16515;DHT22;8370;52.556;7.970;2023-12-07T12:49:47;2.80;99.90
16515;DHT22;8370;52.556;7.970;2023-12-07T12:52:14;2.80;99.90
16515;DHT22;8370;52.556;7.970;2023-12-07T12:54:44;2.80;99.90
16515;DHT22;8370;52.556;7.970;2023-12-07T12:57:10;2.80;99.90
16515;DHT22;8370;52.556;7.970;2023-12-07T12:59:35;2.80;99.90
16515;DHT22;8370;52.556;7.970;2023-12-07T13:02:04;2.80;99.90
16515;DHT22;8370;52.556;7.970;2023-12-07T13:04:29;2.80;99.90
16515;DHT22;8370;52.556;7.970;2023-12-07T13:06:55;2.80;99.90
16515;DHT22;8370;52.556;7.970;2023-12-07T13:09:21;2.70;99.90
16515;DHT22;8370;52.556;7.970;2023-12-07T13:11:46;2.70;99.90
16515;DHT22;8370;52.556;7.970;2023-12-07T13:14:12;2.80;99.90
16515;DHT22;8370;52.556;7.970;2023-12-07T13:16:38;2.70;99.90
16515;DHT22;8370;52.556;7.970;2023-12-07T13:19:03;2.70;99.90
16515;DHT22;8370;52.556;7.970;2023-12-07T13:21:29;2.70;99.90
16515;DHT22;8370;52.556;7.970;2023-12-07T13:23:54;2.70;99.90
16515;DHT22;8370;52.556;7.970;2023-12-07T13:26:19;2.70;99.90
16515;DHT22;8370;52.556;7.970;2023-12-07T13:28:46;2.70;99.90
16515;DHT22;8370;52.556;7.970;2023-12-07T13:31:11;2.70;99.90
16515;DHT22;8370;52.556;7.970;2023-12-07T13:33:37;2.70;99.90
16515;DHT22;8370;52.556;7.970;2023-12-07T13:36:03;2.80;99.90
16515;DHT22;8370;52.556;7.970;2023-12-07T13:38:29;2.70;99.90
16515;DHT22;8370;52.556;7.970;2023-12-07T13:40:56;2.80;99.90
16515;DHT22;8370;52.556;7.970;2023-12-07T13:43:21;2.70;99.90
16515;DHT22;8370;52.556;7.970;2023-12-07T13:45:49;2.70;99.90
16515;DHT22;8370;52.556;7.970;2023-12-07T13:48:15;2.70;99.90
16515;DHT22;8370;52.556;7.970;2023-12-07T13:50:40;2.70;99.90
16515;DHT22;8370;52.556;7.970;2023-12-07T13:53:06;2.70;99.90
16515;DHT22;8370;52.556;7.970;2023-12-07T13:55:38;2.80;99.90
16515;DHT22;8370;52.556;7.970;2023-12-07T13:58:04;2.80;99.90
16515;DHT22;8370;52.556;7.970;2023-12-07T14:00:33;2.80;99.90
16515;DHT22;8370;52.556;7.970;2023-12-07T14:02:59;2.80;99.90
16515;DHT22;8370;52.556;7.970;2023-12-07T14:05:25;2.80;99.90
16515;DHT22;8370;52.556;7.970;2023-12-07T14:07:50;2.80;99.90
16515;DHT22;8370;52.556;7.970;2023-12-07T14:10:16;2.70;99.90
16515;DHT22;8370;52.556;7.970;2023-12-07T14:12:41;2.70;99.90
16515;DHT22;8370;52.556;7.970;2023-12-07T14:15:07;2.70;99.90
16515;DHT22;8370;52.556;7.970;2023-12-07T14:17:33;2.70;99.90
16515;DHT22;8370;52.556;7.970;2023-12-07T14:20:05;2.70;99.90
16515;DHT22;8370;52.556;7.970;2023-12-07T14:22:32;2.80;99.90
16515;DHT22;8370;52.556;7.970;2023-12-07T14:24:58;2.80;99.90
16515;DHT22;8370;52.556;7.970;2023-12-07T14:27:23;2.80;99.90
16515;DHT22;8370;52.556;7.970;2023-12-07T14:29:49;2.80;99.90
16515;DHT22;8370;52.556;7.970;2023-12-07T14:32:15;2.80;99.90
16515;DHT22;8370;52.556;7.970;2023-12-07T14:34:40;2.80;99.90
16515;DHT22;8370;52.556;7.970;2023-12-07T14:37:06;2.80;99.90
16515;DHT22;8370;52.556;7.970;2023-12-07T14:39:34;2.80;99.90
16515;DHT22;8370;52.556;7.970;2023-12-07T14:41:59;2.70;99.90
16515;DHT22;8370;52.556;7.970;2023-12-07T14:44:25;2.70;99.90
16515;DHT22;8370;52.556;7.970;2023-12-07T14:46:50;2.70;99.90
16515;DHT22;8370;52.556;7.970;2023-12-07T14:49:16;2.70;99.90
16515;DHT22;8370;52.556;7.970;2023-12-07T14:51:42;2.70;99.90
16515;DHT22;8370;52.556;7.970;2023-12-07T14:54:08;2.60;99.90
16515;DHT22;8370;52.556;7.970;2023-12-07T14:56:37;2.70;99.90
16515;DHT22;8370;52.556;7.970;2023-12-07T14:59:03;2.70;99.90
16515;DHT22;8370;52.556;7.970;2023-12-07T15:01:28;2.70;99.90
16515;DHT22;8370;52.556;7.970;2023-12-07T15:03:55;2.70;99.90
16515;DHT22;8370;52.556;7.970;2023-12-07T15:06:20;2.80;99.90
16515;DHT22;8370;52.556;7.970;2023-12-07T15:08:46;2.70;99.90
16515;DHT22;8370;52.556;7.970;2023-12-07T15:11:12;2.70;99.90
16515;DHT22;8370;52.556;7.970;2023-12-07T15:13:38;2.60;99.90
16515;DHT22;8370;52.556;7.970;2023-12-07T15:16:03;2.60;99.90
16515;DHT22;8370;52.556;7.970;2023-12-07T15:18:32;2.60;99.90
16515;DHT22;8370;52.556;7.970;2023-12-07T15:21:00;2.60;99.90
16515;DHT22;8370;52.556;7.970;2023-12-07T15:23:26;2.50;99.90
16515;DHT22;8370;52.556;7.970;2023-12-07T15:25:52;2.60;99.90
16515;DHT22;8370;52.556;7.970;2023-12-07T15:28:17;2.50;99.90
16515;DHT22;8370;52.556;7.970;2023-12-07T15:30:43;2.50;99.90
16515;DHT22;8370;52.556;7.970;2023-12-07T15:33:09;2.40;99.90
16515;DHT22;8370;52.556;7.970;2023-12-07T15:35:34;2.40;99.90
16515;DHT22;8370;52.556;7.970;2023-12-07T15:38:00;2.30;99.90
16515;DHT22;8370;52.556;7.970;2023-12-07T15:40:25;2.30;99.90
16515;DHT22;8370;52.556;7.970;2023-12-07T15:42:51;2.20;99.90
16515;DHT22;8370;52.556;7.970;2023-12-07T15:45:16;2.10;99.90
16515;DHT22;8370;52.556;7.970;2023-12-07T15:47:41;2.10;99.90
16515;DHT22;8370;52.556;7.970;2023-12-07T15:50:08;2.00;99.90
16515;DHT22;8370;52.556;7.970;2023-12-07T15:52:35;1.90;99.90
16515;DHT22;8370;52.556;7.970;2023-12-07T15:55:00;1.80;99.90